METAR TAF

[Source: ADDS]
METAR
LFCR 060530Z AUTO 11015KT CAVOK 10/M03 Q1020 =
LFBA 060530Z AUTO 11007KT 9999 ///TCU 11/03 Q1019 =
LFSL 060530Z AUTO 14011KT 110V170 CAVOK 13/M03 Q1019 =
LFLW 060500Z AUTO 11015G26KT 9999 ////// 10/M02 Q1020 =
TAF
SR / SS: 05:25 / 18:27 UTC (LFCC 2020-04-06)